Aeroporto :
LOGIN :

Iscrizione | Disclaimer

   EN    FR    IT 

 










Sommario :    VFR   VFR Marginale   IFR   IFR Intensivo   IFR Molto Intensivo
Visibilità : 
Base nubi : 
>= 8 km
>= 3000ft
5 / 8 km
1000 / 3000 ft
1500m / 5 km
500 / 1000 ft
800 / 1500m
200 / 500 ft
< 800m
< 200 ft
Simboli :   Temporali  Nebbia  Neve Forte  Precipitazioni Forti  Vento > 20 kt
SIGMETs :   Varie  Temporali  Ghiacco  Turbolenza  Onda orograficha  Ceneri Vulcaniche







- Altitudine del aeroporto : 156 ft
- Codice IATA : MLN


GEML - Melilla

ULTIMO METAR :
  • 220130Z AUTO 27005KT 240V320 CAVOK 21/19 Q1016

METARs OBSOLETI :
  • 220100Z AUTO 27006KT 240V320 CAVOK 21/19 Q1016
  • 220030Z AUTO 27005KT 240V300 CAVOK 21/19 Q1017
  • 220000Z AUTO 27006KT 240V320 9999 FEW020/// 21/19 Q1017
  • 212330Z AUTO 27006KT 240V300 9999 FEW022/// 21/19 Q1017
  • 212300Z AUTO 27006KT 240V300 CAVOK 21/19 Q1017

TAF TAF GEML
Valido dal 21 a 21 ore il 22 a 21 ore UTC


212000Z 2121/2221 28004KT 9999 SCT015 TX26/2214Z TN20/2205Z
BECMG 2208/2210 07010KT
PROB30
TEMPO 2121/2206 BKN014
Nessun NOTAM noto per questo aeroporto.
1 SIGMET conosciuto per la FIR Casablanca (GMMM) :
 
Temporali affogati
GMMM SIGMET 04 VALID 220235/220635 GMMC
GMMM CASABLANCA FIR EMBD TS FCST W OF LINE N3551 W00514 - N3450 W005 18 - N3430 W00631 TOP FL300 MOV NW NC=



MetMap, La meteo Aeronautica in un colpo d'occhio ! - Copyright ORBIFLY Dicembre 2007 - Disclaimer

ORBIFLY MET'MAP TEAM :

Programmazione e sviluppo : Alexandra Zaïnal
Concezione e sviluppo : Baudouin d'Aumeries
Co-Programmazione e sviluppo : Marc-Olivier Méhu
Supporto tecnico e logistico : Manuel Goepfert
Aiuto per la traduzione : Arnaldo La Scala

Contatto : metmap@orbifly.com




FONTI E CREDITI :

   NOAA